Time;durP1;ratioP1;P1;durP2;ratioP2;P2;SDS_P1;SDS_P2;PMS_P1;PMS_P2;Temp;Humidity;BMP_temperature;BMP_pressure;BME280_temperature;BME280_humidity;BME280_pressure;Samples;Min_cycle;Max_cycle;Signal;HPM_P1;HPM_P2
2022/04/27 00:02:04;;;;;;;13.50;6.63;;;;;;;;;;5006374;28;20037;-69
2022/04/27 00:04:30;;;;;;;10.27;6.63;;;;;;;;;;5005983;28;20052;-67
2022/04/27 00:06:56;;;;;;;13.57;6.82;;;;;;;;;;5012844;28;20096;-68
2022/04/27 00:09:22;;;;;;;12.02;6.45;;;;;;;;;;5012405;28;20052;-68
2022/04/27 00:11:48;;;;;;;12.00;6.82;;;;;;;;;;5003519;28;20061;-68
2022/04/27 00:14:14;;;;;;;13.55;7.57;;;;;;;;;;5006698;28;20042;-68
2022/04/27 00:16:40;;;;;;;9.60;6.60;;;;;;;;;;5009525;28;20042;-67
2022/04/27 00:19:06;;;;;;;12.35;7.53;;;;;;;;;;5005883;28;20038;-68
2022/04/27 00:21:32;;;;;;;12.65;7.05;;;;;;;;;;5020423;28;20061;-67
2022/04/27 00:23:59;;;;;;;13.55;7.50;;;;;;;;;;5023565;28;20040;-67
2022/04/27 00:26:25;;;;;;;12.27;6.55;;;;;;;;;;5017602;28;20049;-68
2022/04/27 00:28:51;;;;;;;9.85;6.90;;;;;;;;;;5029181;28;20036;-67
2022/04/27 00:31:17;;;;;;;13.45;6.93;;;;;;;;;;5006687;28;20048;-67
2022/04/27 00:33:45;;;;;;;10.68;6.72;;;;;;;;;;5005244;28;20037;-68
2022/04/27 00:36:11;;;;;;;16.33;7.20;;;;;;;;;;5016385;28;20049;-68
2022/04/27 00:38:37;;;;;;;13.60;7.55;;;;;;;;;;5031926;28;20079;-67
2022/04/27 00:41:03;;;;;;;10.45;6.82;;;;;;;;;;5023158;28;20033;-68
2022/04/27 00:43:42;;;;;;;12.02;6.95;;;;;;;;;;5027328;28;20037;-67
2022/04/27 00:46:11;;;;;;;10.80;6.63;;;;;;;;;;5032792;28;20064;-68
2022/04/27 00:48:41;;;;;;;15.93;7.35;;;;;;;;;;5027093;28;20049;-68
2022/04/27 00:51:09;;;;;;;12.55;6.80;;;;;;;;;;5019000;28;20046;-67
2022/04/27 00:53:37;;;;;;;13.27;7.25;;;;;;;;;;5027566;28;20033;-67
2022/04/27 00:56:03;;;;;;;11.73;8.02;;;;;;;;;;5026870;28;20050;-67
2022/04/27 00:58:30;;;;;;;11.45;7.18;;;;;;;;;;5029496;28;20044;-67
2022/04/27 01:00:56;;;;;;;14.45;7.75;;;;;;;;;;5026993;28;20095;-67
2022/04/27 01:03:23;;;;;;;11.77;8.18;;;;;;;;;;5049250;28;20033;-67
2022/04/27 01:05:49;;;;;;;12.60;8.20;;;;;;;;;;5045809;28;20424;-67
2022/04/27 01:08:16;;;;;;;11.68;8.23;;;;;;;;;;5043892;28;20033;-68
2022/04/27 01:10:46;;;;;;;13.57;8.40;;;;;;;;;;5030394;28;20068;-67
2022/04/27 01:13:13;;;;;;;10.90;7.28;;;;;;;;;;5024010;28;20051;-68
2022/04/27 01:15:39;;;;;;;14.27;8.25;;;;;;;;;;5029550;28;20650;-68
2022/04/27 01:18:08;;;;;;;12.55;7.63;;;;;;;;;;5023854;28;20042;-68
2022/04/27 01:20:38;;;;;;;13.65;8.85;;;;;;;;;;5017996;28;20049;-67
2022/04/27 01:23:05;;;;;;;13.02;8.18;;;;;;;;;;5009027;28;20045;-67
2022/04/27 01:25:51;;;;;;;11.88;7.90;;;;;;;;;;5011610;28;20130;-68
2022/04/27 01:28:21;;;;;;;11.55;7.90;;;;;;;;;;5022380;28;20041;-67
2022/04/27 01:30:48;;;;;;;15.52;8.95;;;;;;;;;;5032799;28;20396;-67
2022/04/27 01:33:14;;;;;;;12.25;8.55;;;;;;;;;;5030620;28;20044;-68
2022/04/27 01:35:40;;;;;;;12.18;8.35;;;;;;;;;;5024462;28;20083;-68
2022/04/27 01:38:07;;;;;;;13.50;9.13;;;;;;;;;;5005434;28;20075;-68
2022/04/27 01:40:33;;;;;;;12.70;8.77;;;;;;;;;;5024805;28;20037;-67
2022/04/27 01:42:59;;;;;;;13.35;9.65;;;;;;;;;;5019951;28;20120;-68
2022/04/27 01:45:25;;;;;;;14.40;8.88;;;;;;;;;;5027157;28;20064;-67
2022/04/27 01:47:53;;;;;;;14.40;9.52;;;;;;;;;;5031645;28;20052;-67
2022/04/27 01:50:20;;;;;;;13.55;8.52;;;;;;;;;;5021899;28;20127;-67
2022/04/27 01:55:31;;;;;;;15.80;8.80;;;;;;;;;;5023392;28;20056;-67
2022/04/27 01:57:58;;;;;;;11.05;8.55;;;;;;;;;;5026647;28;20458;-67
2022/04/27 02:00:25;;;;;;;15.52;9.35;;;;;;;;;;5019707;28;20041;-67
2022/04/27 02:02:51;;;;;;;11.10;8.70;;;;;;;;;;5031346;28;20071;-67
2022/04/27 02:05:17;;;;;;;14.73;9.32;;;;;;;;;;5024598;28;20037;-67
2022/04/27 02:07:43;;;;;;;13.45;8.55;;;;;;;;;;5020150;28;20056;-68
2022/04/27 02:10:10;;;;;;;14.25;9.35;;;;;;;;;;5027827;28;20044;-68
2022/04/27 02:12:36;;;;;;;12.63;8.68;;;;;;;;;;5006283;28;20139;-68
2022/04/27 02:15:02;;;;;;;15.82;9.43;;;;;;;;;;5031790;28;20133;-67
2022/04/27 02:17:30;;;;;;;13.50;9.43;;;;;;;;;;5027098;28;20180;-67
2022/04/27 02:19:56;;;;;;;12.43;8.75;;;;;;;;;;5022747;28;20045;-67
2022/04/27 02:22:22;;;;;;;13.80;9.05;;;;;;;;;;5022338;28;20386;-68
2022/04/27 02:24:48;;;;;;;14.02;9.18;;;;;;;;;;5030721;28;20037;-68
2022/04/27 02:27:14;;;;;;;14.80;9.40;;;;;;;;;;5028163;28;20099;-67
2022/04/27 02:29:41;;;;;;;14.10;8.80;;;;;;;;;;5049272;28;20048;-68
2022/04/27 02:32:07;;;;;;;12.35;8.82;;;;;;;;;;5028530;28;20045;-68
2022/04/27 02:34:33;;;;;;;12.10;8.75;;;;;;;;;;5020269;28;20131;-67
2022/04/27 02:37:00;;;;;;;11.55;8.48;;;;;;;;;;5029197;28;20073;-67
2022/04/27 02:39:26;;;;;;;11.52;9.18;;;;;;;;;;5021850;28;20548;-68
2022/04/27 02:41:52;;;;;;;11.95;8.95;;;;;;;;;;5002285;28;20040;-67
2022/04/27 02:44:18;;;;;;;12.52;8.20;;;;;;;;;;5025078;28;20091;-67
2022/04/27 02:46:44;;;;;;;13.40;9.63;;;;;;;;;;5017516;28;20095;-67
2022/04/27 02:51:55;;;;;;;12.32;9.52;;;;;;;;;;5023422;28;20069;-67
2022/04/27 02:54:23;;;;;;;13.48;9.32;;;;;;;;;;5023936;28;20040;-68
2022/04/27 02:56:49;;;;;;;15.20;8.95;;;;;;;;;;5018107;28;20455;-68
2022/04/27 02:59:16;;;;;;;14.98;10.05;;;;;;;;;;5022665;28;20366;-68
2022/04/27 03:01:42;;;;;;;14.88;10.30;;;;;;;;;;5045910;28;20044;-68
2022/04/27 03:04:09;;;;;;;18.50;10.43;;;;;;;;;;5026718;28;20048;-67
2022/04/27 03:06:35;;;;;;;13.38;10.32;;;;;;;;;;5015349;28;20125;-68
2022/04/27 03:09:02;;;;;;;15.57;9.82;;;;;;;;;;5029363;28;20048;-67
2022/04/27 03:11:28;;;;;;;14.88;9.80;;;;;;;;;;5020318;28;20492;-67
2022/04/27 03:13:54;;;;;;;15.10;9.77;;;;;;;;;;5029882;28;20049;-68
2022/04/27 03:16:20;;;;;;;15.10;10.10;;;;;;;;;;5017362;28;20489;-67
2022/04/27 03:18:46;;;;;;;13.77;9.93;;;;;;;;;;5029499;28;20518;-67
2022/04/27 03:21:12;;;;;;;16.00;9.27;;;;;;;;;;5023692;28;20632;-68
2022/04/27 03:23:38;;;;;;;14.40;9.48;;;;;;;;;;5030709;28;20049;-68
2022/04/27 03:26:05;;;;;;;14.02;9.45;;;;;;;;;;5028938;28;20045;-68
2022/04/27 03:28:31;;;;;;;14.55;9.80;;;;;;;;;;5021208;28;20390;-68
2022/04/27 03:30:57;;;;;;;12.82;9.02;;;;;;;;;;5028533;28;20531;-67
2022/04/27 03:33:23;;;;;;;17.33;9.57;;;;;;;;;;5028353;28;20076;-68
2022/04/27 03:35:49;;;;;;;14.20;8.80;;;;;;;;;;5031531;28;20484;-67
2022/04/27 03:38:15;;;;;;;14.05;8.55;;;;;;;;;;5031575;28;20056;-67
2022/04/27 03:40:42;;;;;;;12.73;9.18;;;;;;;;;;5022441;28;20052;-68
2022/04/27 03:43:09;;;;;;;16.98;9.70;;;;;;;;;;5031996;28;20052;-68
2022/04/27 03:45:35;;;;;;;12.43;9.00;;;;;;;;;;5025510;28;20048;-67
2022/04/27 03:48:01;;;;;;;14.40;9.35;;;;;;;;;;5019759;28;20045;-67
2022/04/27 03:50:28;;;;;;;13.10;8.85;;;;;;;;;;5047346;28;20037;-68
2022/04/27 03:52:54;;;;;;;12.80;10.40;;;;;;;;;;5023566;28;20095;-68
2022/04/27 03:55:20;;;;;;;15.40;9.57;;;;;;;;;;5001513;28;20069;-68
2022/04/27 03:57:46;;;;;;;13.50;9.23;;;;;;;;;;5017872;28;20103;-68
2022/04/27 04:00:12;;;;;;;14.18;10.20;;;;;;;;;;5024502;28;20043;-68
2022/04/27 04:02:39;;;;;;;13.70;9.02;;;;;;;;;;5031843;28;20481;-67
2022/04/27 04:05:06;;;;;;;13.48;9.57;;;;;;;;;;5034953;28;20045;-68
2022/04/27 04:07:32;;;;;;;13.57;9.05;;;;;;;;;;5033322;28;20040;-68
2022/04/27 04:09:58;;;;;;;13.95;9.63;;;;;;;;;;5036063;28;20045;-68
2022/04/27 04:12:24;;;;;;;16.35;10.60;;;;;;;;;;5025909;28;20053;-68
2022/04/27 04:14:51;;;;;;;15.68;11.20;;;;;;;;;;5048029;28;20041;-68
2022/04/27 04:17:18;;;;;;;14.07;10.32;;;;;;;;;;5033156;28;20374;-68
2022/04/27 04:19:44;;;;;;;21.75;10.48;;;;;;;;;;5034177;28;20123;-68
2022/04/27 04:22:10;;;;;;;16.95;10.07;;;;;;;;;;5033093;28;20130;-68
2022/04/27 04:24:37;;;;;;;14.45;10.30;;;;;;;;;;5033291;28;20094;-68
2022/04/27 04:29:48;;;;;;;14.82;10.32;;;;;;;;;;5021842;28;20056;-68
2022/04/27 04:32:16;;;;;;;16.42;10.25;;;;;;;;;;5032086;28;20099;-68
2022/04/27 04:34:42;;;;;;;12.60;8.55;;;;;;;;;;5028603;28;20524;-68
2022/04/27 04:37:08;;;;;;;15.15;9.60;;;;;;;;;;5018067;28;20041;-68
2022/04/27 04:39:35;;;;;;;18.85;10.38;;;;;;;;;;5009871;28;20055;-68
2022/04/27 04:42:01;;;;;;;16.38;9.85;;;;;;;;;;5025924;28;20045;-68
2022/04/27 04:44:27;;;;;;;16.63;9.88;;;;;;;;;;5027946;28;20041;-68
2022/04/27 04:46:53;;;;;;;17.67;10.13;;;;;;;;;;5034371;28;20072;-68
2022/04/27 04:49:19;;;;;;;15.25;9.25;;;;;;;;;;5033907;28;20041;-68
2022/04/27 04:51:45;;;;;;;14.35;10.05;;;;;;;;;;5025817;28;20053;-68
2022/04/27 04:54:11;;;;;;;17.13;10.35;;;;;;;;;;5017794;28;20037;-68
2022/04/27 04:56:37;;;;;;;15.90;9.90;;;;;;;;;;5024670;28;20183;-68
2022/04/27 04:59:03;;;;;;;12.25;9.55;;;;;;;;;;5021777;28;20484;-68
2022/04/27 05:01:29;;;;;;;14.30;9.23;;;;;;;;;;5024175;28;20037;-68
2022/04/27 05:03:55;;;;;;;13.20;9.88;;;;;;;;;;5020445;28;20041;-68
2022/04/27 05:06:21;;;;;;;12.35;9.35;;;;;;;;;;5025308;28;20041;-68
2022/04/27 05:08:47;;;;;;;12.95;9.68;;;;;;;;;;5022347;28;20124;-68
2022/04/27 05:11:13;;;;;;;14.10;9.73;;;;;;;;;;5023217;28;20046;-68
2022/04/27 05:13:39;;;;;;;10.52;8.82;;;;;;;;;;5017982;28;20037;-68
2022/04/27 05:16:05;;;;;;;15.52;9.75;;;;;;;;;;5015854;28;20057;-68
2022/04/27 05:18:31;;;;;;;13.18;8.93;;;;;;;;;;5029724;28;20029;-68
2022/04/27 05:20:57;;;;;;;13.50;9.93;;;;;;;;;;5015645;28;20053;-68
2022/04/27 05:23:23;;;;;;;15.13;9.77;;;;;;;;;;5029675;28;20041;-68
2022/04/27 05:25:50;;;;;;;12.80;9.70;;;;;;;;;;5045934;28;20516;-68
2022/04/27 05:28:16;;;;;;;15.30;9.15;;;;;;;;;;5029368;28;20168;-68
2022/04/27 05:33:26;;;;;;;15.63;10.23;;;;;;;;;;5018016;28;20488;-68
2022/04/27 05:35:52;;;;;;;13.60;8.90;;;;;;;;;;5016477;28;20045;-68
2022/04/27 05:38:18;;;;;;;12.48;9.73;;;;;;;;;;5015904;28;20477;-68
2022/04/27 05:40:44;;;;;;;14.77;9.05;;;;;;;;;;5023552;28;20037;-68
2022/04/27 05:43:11;;;;;;;14.75;9.80;;;;;;;;;;5026307;28;20120;-68
2022/04/27 05:45:37;;;;;;;13.27;8.50;;;;;;;;;;5023779;28;20497;-68
2022/04/27 05:48:03;;;;;;;14.15;8.82;;;;;;;;;;5016588;28;20049;-68
2022/04/27 05:50:29;;;;;;;13.35;9.10;;;;;;;;;;5015298;28;20053;-68
2022/04/27 05:52:58;;;;;;;13.57;9.27;;;;;;;;;;5005287;28;20049;-68
2022/04/27 05:55:24;;;;;;;12.95;8.88;;;;;;;;;;5026994;28;20135;-68
2022/04/27 05:57:50;;;;;;;13.70;8.68;;;;;;;;;;5033467;28;20051;-68
2022/04/27 06:00:17;;;;;;;16.90;9.35;;;;;;;;;;5023204;28;20072;-68
2022/04/27 06:02:43;;;;;;;17.65;9.85;;;;;;;;;;5032095;28;20122;-68
2022/04/27 06:05:10;;;;;;;14.30;9.77;;;;;;;;;;5016116;28;20048;-68
2022/04/27 06:07:36;;;;;;;11.68;8.85;;;;;;;;;;5026632;28;20128;-68
2022/04/27 06:10:06;;;;;;;18.27;9.73;;;;;;;;;;5022680;28;20060;-68
2022/04/27 06:12:36;;;;;;;11.70;8.65;;;;;;;;;;5028577;28;20416;-68
2022/04/27 06:15:05;;;;;;;14.13;8.90;;;;;;;;;;5018279;28;20037;-68
2022/04/27 06:17:32;;;;;;;13.27;8.73;;;;;;;;;;5027643;28;20094;-68
2022/04/27 06:19:58;;;;;;;14.38;8.63;;;;;;;;;;5024415;28;20049;-68
2022/04/27 06:22:24;;;;;;;14.68;9.02;;;;;;;;;;5026733;28;20065;-68
2022/04/27 06:24:50;;;;;;;13.15;9.25;;;;;;;;;;4998314;28;20497;-68
2022/04/27 06:27:16;;;;;;;17.25;9.18;;;;;;;;;;5016344;28;20116;-68
2022/04/27 06:29:42;;;;;;;13.38;8.32;;;;;;;;;;5020791;28;20076;-68
2022/04/27 06:32:08;;;;;;;17.90;9.70;;;;;;;;;;5014953;28;20049;-68
2022/04/27 06:34:34;;;;;;;17.00;9.70;;;;;;;;;;5023040;28;20044;-68
2022/04/27 06:37:00;;;;;;;14.10;8.07;;;;;;;;;;5021739;28;20047;-68
2022/04/27 06:39:26;;;;;;;11.68;8.07;;;;;;;;;;5027321;28;20048;-68
2022/04/27 06:41:53;;;;;;;14.73;7.65;;;;;;;;;;5028113;28;20094;-68
2022/04/27 06:44:19;;;;;;;13.32;7.78;;;;;;;;;;5030610;28;20186;-68
2022/04/27 06:46:45;;;;;;;17.48;8.13;;;;;;;;;;5032412;28;20037;-68
2022/04/27 06:49:11;;;;;;;14.13;7.88;;;;;;;;;;5023016;28;20041;-68
2022/04/27 06:51:37;;;;;;;16.88;8.35;;;;;;;;;;5024706;28;20120;-68
2022/04/27 06:54:03;;;;;;;15.48;8.05;;;;;;;;;;5017695;28;20048;-68
2022/04/27 06:56:29;;;;;;;13.77;7.10;;;;;;;;;;5027367;28;20045;-67
2022/04/27 06:58:56;;;;;;;12.43;8.45;;;;;;;;;;5038268;28;20108;-68
2022/04/27 07:01:22;;;;;;;15.38;7.85;;;;;;;;;;5022184;28;20040;-68
2022/04/27 07:03:54;;;;;;;11.88;7.05;;;;;;;;;;5017366;28;20525;-68
2022/04/27 07:06:21;;;;;;;10.23;6.80;;;;;;;;;;5018048;28;20085;-67
2022/04/27 07:08:47;;;;;;;12.23;6.72;;;;;;;;;;5035008;28;20131;-67
2022/04/27 07:11:13;;;;;;;10.65;5.50;;;;;;;;;;5020662;28;20054;-67
2022/04/27 07:13:39;;;;;;;11.32;5.60;;;;;;;;;;5018920;28;20041;-67
2022/04/27 07:16:05;;;;;;;9.18;4.90;;;;;;;;;;5034940;28;20077;-67
2022/04/27 07:18:32;;;;;;;7.53;4.25;;;;;;;;;;5022141;28;20061;-68
2022/04/27 07:21:00;;;;;;;7.00;4.25;;;;;;;;;;5019697;28;20061;-68
2022/04/27 07:23:26;;;;;;;6.05;4.00;;;;;;;;;;5020070;28;20128;-66
2022/04/27 07:25:52;;;;;;;9.43;4.28;;;;;;;;;;5029496;28;20033;-68
2022/04/27 07:28:18;;;;;;;6.03;3.70;;;;;;;;;;5028676;28;20052;-68
2022/04/27 07:30:45;;;;;;;5.63;2.97;;;;;;;;;;5017629;28;20045;-68
2022/04/27 07:33:11;;;;;;;5.60;3.47;;;;;;;;;;5019703;28;20033;-68
2022/04/27 07:35:37;;;;;;;5.45;3.03;;;;;;;;;;5026131;28;20041;-68
2022/04/27 07:38:04;;;;;;;7.38;3.35;;;;;;;;;;5027131;28;20132;-67
2022/04/27 07:40:30;;;;;;;6.53;3.35;;;;;;;;;;5027152;28;20052;-68
2022/04/27 07:42:58;;;;;;;5.32;3.80;;;;;;;;;;5023767;28;20042;-68
2022/04/27 07:45:24;;;;;;;6.18;3.80;;;;;;;;;;5024088;28;20041;-69
2022/04/27 07:47:50;;;;;;;7.43;3.92;;;;;;;;;;5037603;28;20043;-68
2022/04/27 07:50:16;;;;;;;9.27;4.03;;;;;;;;;;5041730;28;20034;-68
2022/04/27 07:52:43;;;;;;;5.55;3.15;;;;;;;;;;5021804;28;20091;-68
2022/04/27 07:55:09;;;;;;;6.07;3.17;;;;;;;;;;5025499;28;20393;-68
2022/04/27 07:57:37;;;;;;;5.30;2.80;;;;;;;;;;5024115;28;20053;-68
2022/04/27 08:00:05;;;;;;;5.28;2.67;;;;;;;;;;5009542;28;20033;-68
2022/04/27 08:02:31;;;;;;;5.57;3.10;;;;;;;;;;5018130;28;20037;-68
2022/04/27 08:04:58;;;;;;;4.13;2.70;;;;;;;;;;5020837;28;20044;-68
2022/04/27 08:07:24;;;;;;;6.57;2.80;;;;;;;;;;5023837;28;20041;-68
2022/04/27 08:09:50;;;;;;;4.65;2.80;;;;;;;;;;5019889;28;20045;-68
2022/04/27 08:12:16;;;;;;;5.15;1.95;;;;;;;;;;5010151;28;20069;-68
2022/04/27 08:14:42;;;;;;;4.43;1.98;;;;;;;;;;5033063;28;20047;-68
2022/04/27 08:17:08;;;;;;;3.80;2.10;;;;;;;;;;5048542;28;20094;-68
2022/04/27 08:19:34;;;;;;;4.05;2.53;;;;;;;;;;5027658;28;20073;-68
2022/04/27 08:22:02;;;;;;;8.10;3.00;;;;;;;;;;5022958;28;20051;-68
2022/04/27 08:24:28;;;;;;;6.25;2.47;;;;;;;;;;5026299;28;20072;-69
2022/04/27 08:26:54;;;;;;;6.65;2.80;;;;;;;;;;5023229;28;20051;-69
2022/04/27 08:29:20;;;;;;;3.63;2.60;;;;;;;;;;5020379;28;20045;-68
2022/04/27 08:31:46;;;;;;;8.45;2.97;;;;;;;;;;5011668;28;20112;-69
2022/04/27 08:34:12;;;;;;;6.78;3.05;;;;;;;;;;5018516;28;20072;-68
2022/04/27 08:36:38;;;;;;;6.85;2.80;;;;;;;;;;5021854;28;20488;-69
2022/04/27 08:39:05;;;;;;;7.75;2.45;;;;;;;;;;5018205;28;20041;-68
2022/04/27 08:41:31;;;;;;;5.88;2.40;;;;;;;;;;5017553;28;20556;-68
2022/04/27 08:43:57;;;;;;;4.53;2.47;;;;;;;;;;5018457;28;20045;-68
2022/04/27 08:46:24;;;;;;;4.93;2.70;;;;;;;;;;5017096;28;20057;-68
2022/04/27 08:48:50;;;;;;;4.18;2.72;;;;;;;;;;5019922;28;20071;-69
2022/04/27 08:51:16;;;;;;;5.68;2.55;;;;;;;;;;5021985;28;20041;-68
2022/04/27 08:53:43;;;;;;;4.65;2.80;;;;;;;;;;5021245;28;20174;-68
2022/04/27 08:56:09;;;;;;;4.32;2.63;;;;;;;;;;5017324;28;20489;-68
2022/04/27 08:58:35;;;;;;;6.18;2.95;;;;;;;;;;5035068;28;20519;-68
2022/04/27 09:01:02;;;;;;;6.00;2.72;;;;;;;;;;5037500;28;20099;-68
2022/04/27 09:03:28;;;;;;;5.78;3.20;;;;;;;;;;5021483;28;20090;-69
2022/04/27 09:05:55;;;;;;;5.57;2.78;;;;;;;;;;5020178;28;20124;-69
2022/04/27 09:08:21;;;;;;;4.28;2.60;;;;;;;;;;5016435;28;20034;-69
2022/04/27 09:10:47;;;;;;;3.80;2.50;;;;;;;;;;5028158;28;20047;-69
2022/04/27 09:13:13;;;;;;;5.50;2.58;;;;;;;;;;5016469;28;20037;-69
2022/04/27 09:15:40;;;;;;;5.28;2.50;;;;;;;;;;5000906;28;20552;-68
2022/04/27 09:21:03;;;;;;;4.05;2.35;;;;;;;;;;5016101;28;20117;-69
2022/04/27 09:23:37;;;;;;;6.75;3.05;;;;;;;;;;5035442;28;20029;-68
2022/04/27 09:26:18;;;;;;;4.10;2.95;;;;;;;;;;5035568;28;20045;-69
2022/04/27 09:28:48;;;;;;;4.30;2.75;;;;;;;;;;5016698;28;20366;-68
2022/04/27 09:31:30;;;;;;;4.80;2.80;;;;;;;;;;5007949;28;20088;-69
2022/04/27 09:34:27;;;;;;;4.63;2.70;;;;;;;;;;5018524;28;20052;-69
2022/04/27 09:36:54;;;;;;;5.45;2.38;;;;;;;;;;5017657;28;20072;-69
2022/04/27 09:39:26;;;;;;;5.30;3.22;;;;;;;;;;5047567;28;20049;-69
2022/04/27 09:41:53;;;;;;;6.00;2.47;;;;;;;;;;5018458;28;20099;-69
2022/04/27 09:44:29;;;;;;;11.63;3.00;;;;;;;;;;5016863;28;20037;-69
2022/04/27 09:46:55;;;;;;;5.95;2.92;;;;;;;;;;5018377;28;20083;-69
2022/04/27 09:49:21;;;;;;;5.03;3.00;;;;;;;;;;5016797;28;20128;-69
2022/04/27 09:51:47;;;;;;;5.10;2.67;;;;;;;;;;5024258;28;20053;-68
2022/04/27 09:54:18;;;;;;;6.72;2.53;;;;;;;;;;5017198;28;20056;-69
2022/04/27 09:56:47;;;;;;;5.97;2.70;;;;;;;;;;5020412;28;20048;-68
2022/04/27 09:59:14;;;;;;;5.13;2.83;;;;;;;;;;5024525;28;20033;-69
2022/04/27 10:01:41;;;;;;;6.75;2.58;;;;;;;;;;5025851;28;20384;-69
2022/04/27 10:04:07;;;;;;;5.07;2.65;;;;;;;;;;5020096;28;20397;-68
2022/04/27 10:06:34;;;;;;;5.97;2.58;;;;;;;;;;5019151;28;20037;-68
2022/04/27 10:09:00;;;;;;;5.20;2.10;;;;;;;;;;5024186;28;20043;-69
2022/04/27 10:11:31;;;;;;;5.68;2.30;;;;;;;;;;5019065;28;20033;-68
2022/04/27 10:13:57;;;;;;;8.00;2.67;;;;;;;;;;5016127;28;20053;-69
2022/04/27 10:16:27;;;;;;;5.18;2.38;;;;;;;;;;5033857;28;20041;-69
2022/04/27 10:18:53;;;;;;;8.05;2.40;;;;;;;;;;5016551;28;20041;-69
2022/04/27 10:21:43;;;;;;;4.25;2.35;;;;;;;;;;5015309;28;20524;-69
2022/04/27 10:24:12;;;;;;;5.28;2.60;;;;;;;;;;5008672;28;20499;-69
2022/04/27 10:26:39;;;;;;;8.07;2.60;;;;;;;;;;5008590;28;20077;-69
2022/04/27 10:29:06;;;;;;;7.07;2.83;;;;;;;;;;5017928;28;20445;-69
2022/04/27 10:31:46;;;;;;;5.00;2.55;;;;;;;;;;5024115;28;20087;-69
2022/04/27 10:34:19;;;;;;;8.57;3.90;;;;;;;;;;5016878;28;20045;-69
2022/04/27 10:36:47;;;;;;;4.25;2.78;;;;;;;;;;5007260;28;20048;-68
2022/04/27 10:39:14;;;;;;;7.00;3.20;;;;;;;;;;5016431;28;20045;-69
2022/04/27 10:41:41;;;;;;;8.73;3.58;;;;;;;;;;5016072;28;20079;-69
2022/04/27 10:44:07;;;;;;;7.38;3.70;;;;;;;;;;5030759;28;20064;-68
2022/04/27 10:46:43;;;;;;;5.93;2.88;;;;;;;;;;5015730;28;20057;-69
2022/04/27 10:49:22;;;;;;;14.70;3.55;;;;;;;;;;5025579;28;20120;-69
2022/04/27 10:52:04;;;;;;;7.10;3.20;;;;;;;;;;5025147;28;20064;-69
2022/04/27 10:54:31;;;;;;;9.63;3.40;;;;;;;;;;5019296;28;20072;-69
2022/04/27 10:57:30;;;;;;;7.65;3.50;;;;;;;;;;5028383;28;20175;-69
2022/04/27 11:00:05;;;;;;;18.15;3.20;;;;;;;;;;4966698;28;20049;-69
2022/04/27 11:02:31;;;;;;;8.18;3.55;;;;;;;;;;5021718;28;20489;-69
2022/04/27 11:04:57;;;;;;;6.13;2.90;;;;;;;;;;5016860;28;20119;-69
2022/04/27 11:07:32;;;;;;;5.75;3.30;;;;;;;;;;5017510;28;20042;-69
2022/04/27 11:10:24;;;;;;;5.60;3.50;;;;;;;;;;5029501;28;20053;-69
2022/04/27 11:12:53;;;;;;;7.72;3.58;;;;;;;;;;5005990;28;20528;-69
2022/04/27 11:15:23;;;;;;;21.17;5.00;;;;;;;;;;5024710;28;20376;-69
2022/04/27 11:17:55;;;;;;;14.20;4.35;;;;;;;;;;5023247;28;20400;-69
2022/04/27 11:20:26;;;;;;;28.20;5.70;;;;;;;;;;5009503;28;20361;-69
2022/04/27 11:22:53;;;;;;;11.02;3.97;;;;;;;;;;5015584;28;20459;-69
2022/04/27 11:25:26;;;;;;;19.45;4.10;;;;;;;;;;5014436;28;20049;-69
2022/04/27 11:27:52;;;;;;;9.15;3.88;;;;;;;;;;5018139;28;20045;-69
2022/04/27 11:30:19;;;;;;;4.70;2.83;;;;;;;;;;5001877;28;20049;-69
2022/04/27 11:32:49;;;;;;;5.65;3.13;;;;;;;;;;5016966;28;20392;-69
2022/04/27 11:35:15;;;;;;;6.82;3.53;;;;;;;;;;4999453;28;20052;-69
2022/04/27 11:37:41;;;;;;;20.45;3.88;;;;;;;;;;5025648;28;20377;-69
2022/04/27 11:40:17;;;;;;;12.57;3.75;;;;;;;;;;5018043;28;20046;-69
2022/04/27 11:42:44;;;;;;;11.35;3.55;;;;;;;;;;5021863;28;20048;-69
2022/04/27 11:45:21;;;;;;;10.30;4.22;;;;;;;;;;5020421;28;20083;-69
2022/04/27 11:47:57;;;;;;;15.75;4.80;;;;;;;;;;5022850;28;20077;-69
2022/04/27 11:50:24;;;;;;;10.63;4.75;;;;;;;;;;5020507;28;20041;-69
2022/04/27 11:53:00;;;;;;;10.25;4.50;;;;;;;;;;5026740;28;20049;-69
2022/04/27 11:55:27;;;;;;;14.38;5.00;;;;;;;;;;5022287;28;20060;-69
2022/04/27 11:57:53;;;;;;;12.32;4.25;;;;;;;;;;5019713;28;20083;-69
2022/04/27 12:00:20;;;;;;;7.93;4.00;;;;;;;;;;5024182;28;20091;-69
2022/04/27 12:02:47;;;;;;;8.52;4.10;;;;;;;;;;5022589;28;20042;-68
2022/04/27 12:05:14;;;;;;;6.88;3.50;;;;;;;;;;5030480;28;20052;-69
2022/04/27 12:07:40;;;;;;;16.00;4.40;;;;;;;;;;5024026;28;20051;-69
2022/04/27 12:10:07;;;;;;;9.13;3.72;;;;;;;;;;5021142;28;20041;-69
2022/04/27 12:12:34;;;;;;;5.85;3.60;;;;;;;;;;5015510;28;20040;-69
2022/04/27 12:15:11;;;;;;;9.88;4.07;;;;;;;;;;5018807;28;20041;-68
2022/04/27 12:17:46;;;;;;;6.45;3.38;;;;;;;;;;5018799;28;20049;-69
2022/04/27 12:20:23;;;;;;;14.60;5.03;;;;;;;;;;5016968;28;20509;-69
2022/04/27 12:22:53;;;;;;;9.45;4.35;;;;;;;;;;5022784;28;20053;-69
2022/04/27 12:25:19;;;;;;;11.32;4.18;;;;;;;;;;5035935;28;20502;-69
2022/04/27 12:27:47;;;;;;;22.48;4.78;;;;;;;;;;5025182;28;20080;-69
2022/04/27 12:30:18;;;;;;;9.25;3.90;;;;;;;;;;5029646;28;20108;-69
2022/04/27 12:32:45;;;;;;;13.60;3.80;;;;;;;;;;5010739;28;20053;-69
2022/04/27 12:37:55;;;;;;;11.05;3.95;;;;;;;;;;5032566;28;20059;-69
2022/04/27 12:40:21;;;;;;;9.95;4.43;;;;;;;;;;5020163;28;20485;-69
2022/04/27 12:43:07;;;;;;;8.43;3.60;;;;;;;;;;5016967;28;20045;-69
2022/04/27 12:45:37;;;;;;;6.85;4.35;;;;;;;;;;5032254;28;20519;-69
2022/04/27 12:48:06;;;;;;;17.85;3.95;;;;;;;;;;5019048;28;20426;-69
2022/04/27 12:50:47;;;;;;;11.45;4.45;;;;;;;;;;5031841;28;20496;-69
2022/04/27 12:53:13;;;;;;;9.38;3.75;;;;;;;;;;5029149;28;20467;-69
2022/04/27 12:55:39;;;;;;;9.57;3.30;;;;;;;;;;5006283;28;20059;-69
2022/04/27 12:58:05;;;;;;;8.68;3.50;;;;;;;;;;5030763;28;20092;-69
2022/04/27 13:00:38;;;;;;;30.35;4.20;;;;;;;;;;5025302;28;20033;-69
2022/04/27 13:03:05;;;;;;;24.40;3.88;;;;;;;;;;5017129;28;20041;-68
2022/04/27 13:05:31;;;;;;;22.92;3.88;;;;;;;;;;5026704;28;20072;-68
2022/04/27 13:07:57;;;;;;;32.90;4.78;;;;;;;;;;5007783;28;20049;-69
2022/04/27 13:13:08;;;;;;;9.00;3.28;;;;;;;;;;5019973;28;20408;-69
2022/04/27 13:15:34;;;;;;;11.88;3.42;;;;;;;;;;5032357;28;20120;-69
2022/04/27 13:18:00;;;;;;;12.13;3.42;;;;;;;;;;5033826;28;20052;-69
2022/04/27 13:20:26;;;;;;;9.48;3.17;;;;;;;;;;5015794;28;20102;-69
2022/04/27 13:22:53;;;;;;;8.15;2.78;;;;;;;;;;5016225;28;20052;-69
2022/04/27 13:25:19;;;;;;;9.80;2.90;;;;;;;;;;5016208;28;20060;-69
2022/04/27 13:27:45;;;;;;;8.68;2.58;;;;;;;;;;5015866;28;20051;-69
2022/04/27 13:30:11;;;;;;;6.85;2.83;;;;;;;;;;5016205;28;20168;-69
2022/04/27 13:32:37;;;;;;;11.50;3.45;;;;;;;;;;5015932;28;20049;-69
2022/04/27 13:35:04;;;;;;;14.93;4.20;;;;;;;;;;5015842;28;20049;-69
2022/04/27 13:37:30;;;;;;;18.33;3.35;;;;;;;;;;5021060;28;20087;-68
2022/04/27 13:39:57;;;;;;;20.95;4.20;;;;;;;;;;5027613;28;20052;-69
2022/04/27 13:42:23;;;;;;;16.42;4.55;;;;;;;;;;5022863;28;20045;-69
2022/04/27 13:44:49;;;;;;;11.73;3.60;;;;;;;;;;5009659;28;20409;-68
2022/04/27 13:47:16;;;;;;;10.90;3.78;;;;;;;;;;5015879;28;20075;-68
2022/04/27 13:49:42;;;;;;;19.98;3.65;;;;;;;;;;4999690;28;20100;-69
2022/04/27 13:52:08;;;;;;;7.28;3.40;;;;;;;;;;5015729;28;20049;-69
2022/04/27 13:54:34;;;;;;;11.70;3.70;;;;;;;;;;5000739;28;20060;-69
2022/04/27 13:57:00;;;;;;;10.98;3.95;;;;;;;;;;5016787;28;20128;-69
2022/04/27 13:59:26;;;;;;;10.00;3.30;;;;;;;;;;5029266;28;20040;-69
2022/04/27 14:01:52;;;;;;;10.00;3.60;;;;;;;;;;5001796;28;20449;-69
2022/04/27 14:04:18;;;;;;;11.07;3.40;;;;;;;;;;5027273;28;20132;-68
2022/04/27 14:06:45;;;;;;;12.90;3.45;;;;;;;;;;5030611;28;20077;-68
2022/04/27 14:09:11;;;;;;;15.38;3.50;;;;;;;;;;5020504;28;20495;-68
2022/04/27 14:14:22;;;;;;;10.90;3.85;;;;;;;;;;5046175;28;20056;-68
2022/04/27 14:19:34;;;;;;;8.85;2.83;;;;;;;;;;5020736;28;20078;-67
2022/04/27 14:22:01;;;;;;;11.10;3.70;;;;;;;;;;5027466;28;20072;-68
2022/04/27 14:24:27;;;;;;;11.45;3.65;;;;;;;;;;5025069;28;20044;-68
2022/04/27 14:26:53;;;;;;;13.93;3.42;;;;;;;;;;5014682;28;20035;-68
2022/04/27 14:29:19;;;;;;;10.30;3.58;;;;;;;;;;5014739;28;20037;-68
2022/04/27 14:31:45;;;;;;;9.32;3.30;;;;;;;;;;5018018;28;20136;-68
2022/04/27 14:34:11;;;;;;;9.35;3.30;;;;;;;;;;5018835;28;20052;-68
2022/04/27 14:36:37;;;;;;;9.80;3.30;;;;;;;;;;5022565;28;20038;-69
2022/04/27 14:39:03;;;;;;;11.60;3.20;;;;;;;;;;5055342;28;20087;-68
2022/04/27 14:41:30;;;;;;;10.65;3.35;;;;;;;;;;5023632;28;20041;-68
2022/04/27 14:43:57;;;;;;;6.75;3.00;;;;;;;;;;5003247;28;20045;-68
2022/04/27 14:46:23;;;;;;;11.85;3.55;;;;;;;;;;5042169;28;20052;-68
2022/04/27 14:48:51;;;;;;;15.30;3.35;;;;;;;;;;5016744;28;20080;-68
2022/04/27 14:51:17;;;;;;;10.98;3.53;;;;;;;;;;5023155;28;20076;-68
2022/04/27 14:53:44;;;;;;;13.40;3.35;;;;;;;;;;5020769;28;20048;-68
2022/04/27 14:56:10;;;;;;;8.82;2.70;;;;;;;;;;5017211;28;20041;-68
2022/04/27 14:58:36;;;;;;;10.68;3.35;;;;;;;;;;5002466;28;20092;-68
2022/04/27 15:01:03;;;;;;;8.95;3.20;;;;;;;;;;4982451;28;20057;-68